createdAt,value
2018-05-09T00:00:50.327Z,13.54
2018-05-09T00:02:50.432Z,13.50
2018-05-09T00:04:50.770Z,13.49
2018-05-09T00:06:50.048Z,13.46
2018-05-09T00:08:50.156Z,13.44
2018-05-09T00:10:50.309Z,13.40
2018-05-09T00:12:50.454Z,13.31
2018-05-09T00:14:50.571Z,13.28
2018-05-09T00:16:50.850Z,13.28
2018-05-09T00:18:49.963Z,13.23
2018-05-09T00:20:50.110Z,13.18
2018-05-09T00:22:50.192Z,13.12
2018-05-09T00:24:50.366Z,13.08
2018-05-09T00:26:50.627Z,13.00
2018-05-09T00:28:50.776Z,12.97
2018-05-09T00:30:49.936Z,12.94
2018-05-09T00:32:50.092Z,12.93
2018-05-09T00:34:50.505Z,12.85
2018-05-09T00:36:50.702Z,12.77
2018-05-09T00:38:50.852Z,12.71
2018-05-09T00:40:49.984Z,12.68
2018-05-09T00:42:50.131Z,12.68
2018-05-09T00:44:50.280Z,12.66
2018-05-09T00:46:50.579Z,12.64
2018-05-09T00:48:50.720Z,12.60
2018-05-09T00:50:49.909Z,12.59
2018-05-09T00:52:50.110Z,12.57
2018-05-09T00:54:50.260Z,12.47
2018-05-09T00:56:50.536Z,12.42
2018-05-09T00:58:50.705Z,12.37
2018-05-09T01:00:49.888Z,12.37
2018-05-09T01:02:49.966Z,12.37
2018-05-09T01:04:50.399Z,12.37
2018-05-09T01:06:50.699Z,12.32
2018-05-09T01:08:50.935Z,12.28
2018-05-09T01:10:50.122Z,12.27
2018-05-09T01:12:50.318Z,12.26
2018-05-09T01:14:50.465Z,12.24
2018-05-09T01:16:50.699Z,12.25
2018-05-09T01:18:50.885Z,12.28
2018-05-09T01:20:50.010Z,12.32
2018-05-09T01:22:50.146Z,12.35
2018-05-09T01:24:50.430Z,12.39
2018-05-09T01:26:50.481Z,12.46
2018-05-09T01:28:50.670Z,12.48
2018-05-09T01:30:50.833Z,12.53
2018-05-09T01:32:49.973Z,12.49
2018-05-09T01:34:50.421Z,12.43
2018-05-09T01:36:50.713Z,12.36
2018-05-09T01:38:50.822Z,12.31
2018-05-09T01:40:50.010Z,12.28
2018-05-09T01:42:50.150Z,12.25
2018-05-09T01:44:50.305Z,12.21
2018-05-09T01:46:50.636Z,12.15
2018-05-09T01:48:50.805Z,12.10
2018-05-09T01:50:50.027Z,12.06
2018-05-09T01:52:50.267Z,12.03
2018-05-09T01:54:50.643Z,11.99
2018-05-09T01:56:50.053Z,11.98
2018-05-09T01:58:50.228Z,11.96
2018-05-09T02:00:50.436Z,11.94
2018-05-09T02:02:50.594Z,11.92
2018-05-09T02:04:49.902Z,11.92
2018-05-09T02:06:50.178Z,11.95
2018-05-09T02:08:50.613Z,12.00
2018-05-09T02:10:50.807Z,12.06
2018-05-09T02:12:49.927Z,12.10
2018-05-09T02:14:50.090Z,12.18
2018-05-09T02:16:50.371Z,12.23
2018-05-09T02:18:50.553Z,12.30
2018-05-09T02:20:50.765Z,12.33
2018-05-09T02:22:49.945Z,12.37
2018-05-09T02:24:50.104Z,12.38
2018-05-09T02:26:50.484Z,12.33
2018-05-09T02:28:50.602Z,12.30
2018-05-09T02:30:50.760Z,12.29
2018-05-09T02:32:50.883Z,12.29
2018-05-09T02:34:50.245Z,12.31
2018-05-09T02:36:50.496Z,12.31
2018-05-09T02:38:50.746Z,12.30
2018-05-09T02:40:50.892Z,12.31
2018-05-09T02:42:50.043Z,12.40
2018-05-09T02:44:50.200Z,12.40
2018-05-09T02:46:50.517Z,12.51
2018-05-09T02:48:50.683Z,12.53
2018-05-09T02:50:50.911Z,12.57
2018-05-09T02:52:50.149Z,12.58
2018-05-09T02:54:50.311Z,12.59
2018-05-09T02:56:50.686Z,12.59
2018-05-09T02:58:50.854Z,12.59
2018-05-09T03:00:49.983Z,12.59
2018-05-09T03:02:50.121Z,12.5
2018-05-09T03:04:50.613Z,12.5
2018-05-09T03:06:49.927Z,12.50
2018-05-09T03:08:50.070Z,12.48
2018-05-09T03:10:50.272Z,12.49
2018-05-09T03:12:50.394Z,12.50
2018-05-09T03:14:50.507Z,12.50
2018-05-09T03:16:50.819Z,12.55
2018-05-09T03:18:49.992Z,12.58
2018-05-09T03:20:50.097Z,12.58
2018-05-09T03:22:50.267Z,12.72
2018-05-09T03:24:50.387Z,12.75
2018-05-09T03:26:50.744Z,12.80
2018-05-09T03:28:49.901Z,12.8
2018-05-09T03:30:50.025Z,12.84
2018-05-09T03:32:50.231Z,12.9
2018-05-09T03:34:50.528Z,12.9
2018-05-09T03:36:50.808Z,13.0
2018-05-09T03:38:49.965Z,13.0
2018-05-09T03:40:50.060Z,13.0
2018-05-09T03:42:50.255Z,13.0
2018-05-09T03:44:50.378Z,13.0
2018-05-09T03:46:50.679Z,13.1
2018-05-09T03:48:50.812Z,13.2
2018-05-09T03:50:50.000Z,13.2
2018-05-09T03:52:50.108Z,13.3
2018-05-09T03:54:50.244Z,13.3
2018-05-09T03:56:50.494Z,13.3
2018-05-09T03:58:50.672Z,13.4
2018-05-09T04:00:50.849Z,13.4
2018-05-09T04:02:50.033Z,13.4
2018-05-09T04:04:50.381Z,13.5
2018-05-09T04:06:50.740Z,13.5
2018-05-09T04:08:50.363Z,13.6
2018-05-09T04:10:50.626Z,13.6
2018-05-09T04:12:50.773Z,13.6
2018-05-09T04:14:50.230Z,13.7
2018-05-09T04:16:50.621Z,13.8
2018-05-09T04:18:50.723Z,13.8
2018-05-09T04:20:50.216Z,13.8
2018-05-09T04:22:50.461Z,13.77
2018-05-09T04:24:50.600Z,13.75
2018-05-09T04:26:50.326Z,13.76
2018-05-09T04:28:50.484Z,13.75
2018-05-09T04:30:50.608Z,13.77
2018-05-09T04:32:50.743Z,13.79
2018-05-09T04:34:50.176Z,13.8
2018-05-09T04:36:50.433Z,13.8
2018-05-09T04:38:50.587Z,13.8
2018-05-09T04:40:50.744Z,13.8
2018-05-09T04:42:50.007Z,13.9
2018-05-09T04:44:50.167Z,13.97
2018-05-09T04:46:50.459Z,13.97
2018-05-09T04:48:50.629Z,13.94
2018-05-09T04:50:50.762Z,13.93
2018-05-09T04:52:49.979Z,13.97
2018-05-09T04:54:50.121Z,13.97
2018-05-09T04:56:50.381Z,14.04
2018-05-09T04:58:50.493Z,14.12
2018-05-09T05:00:50.587Z,14.17
2018-05-09T05:02:50.659Z,14.2
2018-05-09T05:04:50.056Z,14.3
2018-05-09T05:06:50.368Z,14.38
2018-05-09T05:08:50.512Z,14.4
2018-05-09T05:10:50.665Z,14.5
2018-05-09T05:12:50.782Z,14.5
2018-05-09T05:14:49.980Z,14.6
2018-05-09T05:16:50.307Z,14.6
2018-05-09T05:18:50.537Z,14.6
2018-05-09T05:20:50.648Z,14.8
2018-05-09T05:22:50.814Z,14.8
2018-05-09T05:24:49.976Z,14.9
2018-05-09T05:26:50.198Z,14.9
2018-05-09T05:28:50.398Z,14.99
2018-05-09T05:30:50.549Z,15.0
2018-05-09T05:32:51.258Z,15.1
2018-05-09T05:34:50.792Z,15.1
2018-05-09T05:36:50.660Z,15.2
2018-05-09T05:38:51.195Z,15.2
2018-05-09T05:40:50.642Z,15.4
2018-05-09T05:42:50.809Z,15.5
2018-05-09T05:44:50.339Z,15.6
2018-05-09T05:46:50.681Z,15.8
2018-05-09T05:48:49.902Z,15.8
2018-05-09T05:50:50.027Z,15.8
2018-05-09T05:52:50.232Z,16.0
2018-05-09T05:54:50.415Z,16.0
2018-05-09T05:56:50.739Z,16.0
2018-05-09T05:58:50.895Z,16.2
2018-05-09T06:00:50.109Z,16.2
2018-05-09T06:02:50.303Z,16.2
2018-05-09T06:04:50.649Z,16.2
2018-05-09T06:06:49.920Z,16.4
2018-05-09T06:08:50.141Z,16.4
2018-05-09T06:10:50.335Z,16.6
2018-05-09T06:12:50.483Z,16.6
2018-05-09T06:14:50.699Z,16.6
2018-05-09T06:16:49.958Z,16.8
2018-05-09T06:18:50.124Z,16.9
2018-05-09T06:20:50.292Z,17.0
2018-05-09T06:22:50.405Z,17.1
2018-05-09T06:24:50.564Z,17.1
2018-05-09T06:26:50.859Z,17.2
2018-05-09T06:28:50.037Z,17.3
2018-05-09T06:30:50.660Z,17.4
2018-05-09T06:32:50.925Z,17.5
2018-05-09T06:34:50.255Z,17.5
2018-05-09T06:36:50.412Z,17.6
2018-05-09T06:38:50.542Z,17.7
2018-05-09T06:40:50.749Z,17.8
2018-05-09T06:42:49.926Z,17.8
2018-05-09T06:44:50.019Z,17.8
2018-05-09T06:46:50.257Z,17.9
2018-05-09T06:48:50.406Z,18.0
2018-05-09T06:50:50.538Z,18.0
2018-05-09T06:52:50.809Z,18.1
2018-05-09T06:54:49.941Z,18.2
2018-05-09T06:56:50.268Z,18.2
2018-05-09T06:58:50.472Z,18.4
2018-05-09T07:00:50.578Z,18.4
2018-05-09T07:02:50.710Z,18.4
2018-05-09T07:04:50.104Z,18.5
2018-05-09T07:06:50.365Z,18.6
2018-05-09T07:08:50.544Z,18.6
2018-05-09T07:10:50.683Z,18.6
2018-05-09T07:12:50.844Z,18.7
2018-05-09T07:14:49.994Z,18.8
2018-05-09T07:16:50.247Z,18.8
2018-05-09T07:18:50.356Z,18.8
2018-05-09T07:20:50.500Z,18.8
2018-05-09T07:22:50.708Z,18.9
2018-05-09T07:24:50.801Z,19.0
2018-05-09T07:26:50.026Z,19.0
2018-05-09T07:28:50.187Z,19.1
2018-05-09T07:30:50.364Z,19.1
2018-05-09T07:32:50.480Z,19.1
2018-05-09T07:34:50.837Z,19.2
2018-05-09T07:36:50.053Z,19.2
2018-05-09T07:38:50.126Z,19.2
2018-05-09T07:40:50.245Z,19.3
2018-05-09T07:42:50.416Z,19.4
2018-05-09T07:44:50.498Z,19.4
2018-05-09T07:46:50.837Z,19.5
2018-05-09T07:48:49.923Z,19.5
2018-05-09T07:50:50.109Z,19.5
2018-05-09T07:52:50.282Z,19.5
2018-05-09T07:54:50.394Z,19.6
2018-05-09T07:56:50.688Z,19.6
2018-05-09T07:58:50.786Z,19.7
2018-05-09T08:00:49.903Z,19.8
2018-05-09T08:02:50.032Z,19.9
2018-05-09T08:04:50.495Z,19.9
2018-05-09T08:06:50.787Z,19.9
2018-05-09T08:08:49.955Z,19.9
2018-05-09T08:10:50.111Z,20.1
2018-05-09T08:12:50.737Z,20.1
2018-05-09T08:14:49.924Z,20.2
2018-05-09T08:16:50.222Z,20.2
2018-05-09T08:18:50.387Z,20.2
2018-05-09T08:20:50.515Z,20.3
2018-05-09T08:22:50.672Z,20.3
2018-05-09T08:24:50.794Z,20.4
2018-05-09T08:26:50.098Z,20.4
2018-05-09T08:28:50.249Z,20.5
2018-05-09T08:30:50.378Z,20.5
2018-05-09T08:32:50.490Z,20.6
2018-05-09T08:34:50.859Z,20.6
2018-05-09T08:36:50.141Z,20.7
2018-05-09T08:38:50.269Z,20.7
2018-05-09T08:40:50.387Z,20.8
2018-05-09T08:42:50.502Z,20.8
2018-05-09T08:44:50.627Z,21.0
2018-05-09T08:46:49.882Z,21.0
2018-05-09T08:48:50.006Z,21.0
2018-05-09T08:50:50.162Z,21.0
2018-05-09T08:52:50.243Z,21.1
2018-05-09T08:54:50.441Z,21.1
2018-05-09T08:56:50.631Z,21.2
2018-05-09T08:58:50.766Z,21.3
2018-05-09T09:00:49.952Z,21.3
2018-05-09T09:02:50.035Z,21.3
2018-05-09T09:04:50.426Z,21.3
2018-05-09T09:06:50.639Z,21.3
2018-05-09T09:08:50.768Z,21.4
2018-05-09T09:10:51.123Z,21.4
2018-05-09T09:12:50.385Z,21.6
2018-05-09T09:14:50.507Z,21.6
2018-05-09T09:16:50.904Z,21.6
2018-05-09T09:18:50.088Z,21.8
2018-05-09T09:20:50.464Z,21.8
2018-05-09T09:22:50.761Z,22.0
2018-05-09T09:24:49.940Z,22.0
2018-05-09T09:26:50.159Z,22.0
2018-05-09T09:28:50.305Z,22.2
2018-05-09T09:30:50.498Z,22.3
2018-05-09T09:32:50.613Z,22.4
2018-05-09T09:34:50.092Z,22.4
2018-05-09T09:36:50.349Z,22.3
2018-05-09T09:38:50.471Z,22.3
2018-05-09T09:40:50.581Z,22.4
2018-05-09T09:42:50.757Z,22.4
2018-05-09T09:44:50.851Z,22.4
2018-05-09T09:46:50.141Z,22.4
2018-05-09T09:48:50.324Z,22.4
2018-05-09T09:50:50.451Z,22.4
2018-05-09T09:52:50.670Z,22.4
2018-05-09T09:54:50.801Z,22.5
2018-05-09T09:56:50.157Z,22.5
2018-05-09T09:58:50.301Z,22.6
2018-05-09T10:00:50.436Z,22.6
2018-05-09T10:02:50.578Z,22.8
2018-05-09T10:04:49.901Z,22.9
2018-05-09T10:06:50.184Z,23.2
2018-05-09T10:08:50.334Z,23.3
2018-05-09T10:10:50.511Z,23.3
2018-05-09T10:12:50.627Z,23.4
2018-05-09T10:14:50.748Z,23.6
2018-05-09T10:16:49.964Z,23.6
2018-05-09T10:18:50.086Z,23.7
2018-05-09T10:20:50.210Z,23.7
2018-05-09T10:22:50.322Z,23.7
2018-05-09T10:24:50.523Z,23.7
2018-05-09T10:26:50.767Z,23.8
2018-05-09T10:28:50.884Z,23.8
2018-05-09T10:30:50.081Z,23.8
2018-05-09T10:32:50.170Z,23.8
2018-05-09T10:34:50.504Z,23.8
2018-05-09T10:36:50.748Z,23.8
2018-05-09T10:38:49.995Z,23.9
2018-05-09T10:40:50.128Z,24.0
2018-05-09T10:42:50.242Z,24.1
2018-05-09T10:44:50.348Z,24.3
2018-05-09T10:46:50.574Z,24.3
2018-05-09T10:48:50.806Z,24.3
2018-05-09T10:50:50.361Z,24.2
2018-05-09T10:52:50.487Z,24.2
2018-05-09T10:54:50.666Z,24.3
2018-05-09T10:56:49.956Z,24.3
2018-05-09T10:58:50.124Z,24.3
2018-05-09T11:00:50.299Z,24.3
2018-05-09T11:02:50.525Z,24.6
2018-05-09T11:04:50.751Z,24.6
2018-05-09T11:06:50.038Z,24.6
2018-05-09T11:08:50.149Z,24.6
2018-05-09T11:10:50.268Z,24.8
2018-05-09T11:12:50.392Z,24.8
2018-05-09T11:14:50.504Z,24.9
2018-05-09T11:16:50.776Z,25.0
2018-05-09T11:18:49.894Z,25.0
2018-05-09T11:20:49.997Z,24.9
2018-05-09T11:22:50.132Z,24.8
2018-05-09T11:24:50.301Z,24.8
2018-05-09T11:26:50.603Z,24.8
2018-05-09T11:28:50.680Z,25.0
2018-05-09T11:30:50.801Z,25.1
2018-05-09T11:32:49.944Z,25.2
2018-05-09T11:34:50.260Z,25.5
2018-05-09T11:36:50.506Z,25.6
2018-05-09T11:38:50.635Z,25.6
2018-05-09T11:40:50.794Z,25.6
2018-05-09T11:42:49.930Z,25.6
2018-05-09T11:44:50.301Z,25.7
2018-05-09T11:46:50.611Z,25.7
2018-05-09T11:48:50.773Z,25.8
2018-05-09T11:50:49.924Z,25.8
2018-05-09T11:52:50.144Z,25.8
2018-05-09T11:54:50.291Z,25.8
2018-05-09T11:56:50.549Z,25.8
2018-05-09T11:58:50.690Z,25.9
2018-05-09T12:00:50.777Z,25.8
2018-05-09T12:02:49.982Z,25.8
2018-05-09T12:04:50.374Z,25.8
2018-05-09T12:06:50.640Z,25.8
2018-05-09T12:08:50.767Z,25.7
2018-05-09T12:10:51.307Z,25.5
2018-05-09T12:12:50.829Z,25.5
2018-05-09T12:14:49.991Z,25.4
2018-05-09T12:16:50.271Z,25.4
2018-05-09T12:18:50.439Z,25.2
2018-05-09T12:20:50.619Z,25.2
2018-05-09T12:22:50.724Z,25.2
2018-05-09T12:24:50.817Z,25.3
2018-05-09T12:26:50.226Z,25.4
2018-05-09T12:28:50.389Z,25.4
2018-05-09T12:30:50.501Z,25.6
2018-05-09T12:32:50.580Z,25.6
2018-05-09T12:34:49.915Z,25.7
2018-05-09T12:36:50.127Z,25.8
2018-05-09T12:38:50.302Z,25.9
2018-05-09T12:40:50.486Z,26.0
2018-05-09T12:42:50.659Z,26.0
2018-05-09T12:44:50.790Z,26.2
2018-05-09T12:46:49.927Z,26.3
2018-05-09T12:48:51.239Z,26.4
2018-05-09T12:50:50.646Z,26.2
2018-05-09T12:52:50.832Z,26.1
2018-05-09T12:54:50.044Z,26.1
2018-05-09T12:56:50.288Z,25.9
2018-05-09T12:58:50.403Z,25.8
2018-05-09T13:00:50.563Z,25.8
2018-05-09T13:02:50.681Z,25.6
2018-05-09T13:04:50.095Z,25.6
2018-05-09T13:06:50.313Z,25.5
2018-05-09T13:08:50.450Z,25.4
2018-05-09T13:10:50.579Z,25.5
2018-05-09T13:12:50.710Z,25.5
2018-05-09T13:14:50.860Z,25.5
2018-05-09T13:16:50.117Z,25.6
2018-05-09T13:18:50.320Z,25.6
2018-05-09T13:20:50.490Z,25.7
2018-05-09T13:22:50.705Z,25.8
2018-05-09T13:24:50.868Z,26.1
2018-05-09T13:26:50.132Z,26.2
2018-05-09T13:28:50.245Z,26.5
2018-05-09T13:30:50.430Z,26.5
2018-05-09T13:32:50.600Z,26.6
2018-05-09T13:34:49.988Z,26.7
2018-05-09T13:36:50.235Z,26.8
2018-05-09T13:38:50.371Z,26.8
2018-05-09T13:40:50.461Z,27.1
2018-05-09T13:42:50.649Z,27.3
2018-05-09T13:44:50.804Z,27.4
2018-05-09T13:46:50.142Z,27.5
2018-05-09T13:48:50.279Z,27.5
2018-05-09T13:50:50.377Z,27.5
2018-05-09T13:52:50.561Z,27.3
2018-05-09T13:54:50.755Z,27.2
2018-05-09T13:56:50.134Z,27.0
2018-05-09T13:58:50.293Z,26.8
2018-05-09T14:00:50.413Z,26.8
2018-05-09T14:02:50.602Z,26.7
2018-05-09T14:04:49.946Z,26.6
2018-05-09T14:06:50.218Z,26.6
2018-05-09T14:08:50.346Z,26.4
2018-05-09T14:10:50.472Z,26.4
2018-05-09T14:12:50.567Z,26.3
2018-05-09T14:14:50.679Z,26.2
2018-05-09T14:16:49.957Z,26.2
2018-05-09T14:18:50.102Z,26.3
2018-05-09T14:20:50.305Z,26.3
2018-05-09T14:22:50.456Z,26.3
2018-05-09T14:24:50.564Z,26.3
2018-05-09T14:26:50.875Z,26.3
2018-05-09T14:28:49.985Z,26.3
2018-05-09T14:30:50.195Z,26.3
2018-05-09T14:32:50.343Z,26.4
2018-05-09T14:34:50.658Z,26.4
2018-05-09T14:36:49.944Z,26.4
2018-05-09T14:38:50.107Z,26.6
2018-05-09T14:40:50.225Z,26.6
2018-05-09T14:42:50.489Z,26.6
2018-05-09T14:44:50.621Z,26.6
2018-05-09T14:46:50.870Z,26.6
2018-05-09T14:48:49.995Z,26.6
2018-05-09T14:50:50.106Z,26.8
2018-05-09T14:52:50.228Z,27.0
2018-05-09T14:54:50.408Z,27.0
2018-05-09T14:56:50.641Z,27.0
2018-05-09T14:58:50.785Z,27.1
2018-05-09T15:00:50.956Z,27.0
2018-05-09T15:02:50.109Z,27.0
2018-05-09T15:04:50.509Z,27.0
2018-05-09T15:06:50.805Z,27.0
2018-05-09T15:08:49.943Z,26.9
2018-05-09T15:10:50.045Z,26.9
2018-05-09T15:12:50.197Z,26.9
2018-05-09T15:14:50.492Z,26.8
2018-05-09T15:16:50.793Z,26.6
2018-05-09T15:18:49.913Z,26.4
2018-05-09T15:20:50.039Z,26.07
2018-05-09T15:22:50.282Z,25.79
2018-05-09T15:24:50.388Z,25.59
2018-05-09T15:26:50.737Z,25.53
2018-05-09T15:28:50.874Z,25.53
2018-05-09T15:30:49.962Z,25.54
2018-05-09T15:32:50.571Z,25.8
2018-05-09T15:34:49.964Z,25.7
2018-05-09T15:36:50.211Z,25.7
2018-05-09T15:38:50.733Z,25.8
2018-05-09T15:40:49.900Z,25.8
2018-05-09T15:42:50.057Z,25.8
2018-05-09T15:44:50.960Z,25.6
2018-05-09T15:46:50.558Z,25.5
2018-05-09T15:48:50.662Z,25.3
2018-05-09T15:50:50.783Z,25.3
2018-05-09T15:52:49.921Z,25.3
2018-05-09T15:54:50.020Z,25.2
2018-05-09T15:56:50.284Z,25.2
2018-05-09T15:58:50.448Z,25.2
2018-05-09T16:00:51.023Z,25.2
2018-05-09T16:02:50.243Z,25.3
2018-05-09T16:04:50.539Z,25.3
2018-05-09T16:06:50.876Z,25.4
2018-05-09T16:08:50.060Z,25.4
2018-05-09T16:10:50.184Z,25.4
2018-05-09T16:12:50.405Z,25.6
2018-05-09T16:14:50.563Z,25.6
2018-05-09T16:16:50.862Z,25.8
2018-05-09T16:18:49.964Z,25.8
2018-05-09T16:20:50.108Z,26.0
2018-05-09T16:22:50.355Z,26.1
2018-05-09T16:24:50.486Z,26.2
2018-05-09T16:26:50.810Z,26.2
2018-05-09T16:28:50.006Z,26.2
2018-05-09T16:30:50.128Z,26.3
2018-05-09T16:32:50.233Z,26.3
2018-05-09T16:34:50.530Z,26.4
2018-05-09T16:36:50.810Z,26.4
2018-05-09T16:38:49.969Z,26.4
2018-05-09T16:40:50.428Z,26.4
2018-05-09T16:42:50.514Z,26.3
2018-05-09T16:44:50.661Z,26.2
2018-05-09T16:46:49.985Z,26.2
2018-05-09T16:48:50.165Z,26.2
2018-05-09T16:50:50.271Z,26.2
2018-05-09T16:52:50.437Z,26.1
2018-05-09T16:54:50.584Z,26.2
2018-05-09T16:56:49.918Z,26.1
2018-05-09T16:58:50.027Z,26.1
2018-05-09T17:00:50.245Z,25.94
2018-05-09T17:02:50.414Z,25.50
2018-05-09T17:04:49.915Z,25.21
2018-05-09T17:06:50.090Z,25.01
2018-05-09T17:08:50.186Z,24.58
2018-05-09T17:10:50.337Z,24.39
2018-05-09T17:12:50.570Z,24.29
2018-05-09T17:14:50.684Z,24.19
2018-05-09T17:16:49.961Z,24.12
2018-05-09T17:18:50.134Z,23.81
2018-05-09T17:20:50.255Z,23.66
2018-05-09T17:22:50.505Z,23.29
2018-05-09T17:24:51.427Z,23.05
2018-05-09T17:26:50.017Z,22.88
2018-05-09T17:28:50.246Z,22.66
2018-05-09T17:30:50.400Z,22.55
2018-05-09T17:32:50.532Z,22.34
2018-05-09T17:34:50.847Z,22.20
2018-05-09T17:36:50.619Z,21.95
2018-05-09T17:38:50.818Z,21.58
2018-05-09T17:40:49.995Z,21.43
2018-05-09T17:42:50.174Z,21.30
2018-05-09T17:44:50.379Z,21.24
2018-05-09T17:46:50.714Z,21.02
2018-05-09T17:48:50.854Z,20.94
2018-05-09T17:50:49.976Z,20.95
2018-05-09T17:52:50.090Z,20.86
2018-05-09T17:54:50.175Z,20.74
2018-05-09T17:56:50.412Z,20.60
2018-05-09T17:58:50.801Z,20.56
2018-05-09T18:00:50.048Z,20.54
2018-05-09T18:02:50.182Z,20.51
2018-05-09T18:04:50.556Z,20.45
2018-05-09T18:06:50.809Z,20.41
2018-05-09T18:08:49.959Z,20.35
2018-05-09T18:10:50.049Z,20.32
2018-05-09T18:12:50.281Z,20.29
2018-05-09T18:14:51.172Z,20.24
2018-05-09T18:16:50.415Z,20.22
2018-05-09T18:18:50.550Z,20.13
2018-05-09T18:20:50.686Z,20.10
2018-05-09T18:22:49.903Z,20.02
2018-05-09T18:24:50.032Z,19.94
2018-05-09T18:26:50.796Z,19.90
2018-05-09T18:28:50.014Z,19.78
2018-05-09T18:30:50.132Z,19.67
2018-05-09T18:32:50.239Z,19.62
2018-05-09T18:34:50.616Z,19.50
2018-05-09T18:36:49.916Z,19.45
2018-05-09T18:38:50.113Z,19.32
2018-05-09T18:40:50.305Z,19.26
2018-05-09T18:42:50.412Z,19.18
2018-05-09T18:44:50.652Z,19.14
2018-05-09T18:46:50.083Z,19.10
2018-05-09T18:48:50.289Z,19.10
2018-05-09T18:50:50.494Z,18.98
2018-05-09T18:52:50.636Z,18.95
2018-05-09T18:54:50.798Z,18.90
2018-05-09T18:56:50.028Z,18.80
2018-05-09T18:58:50.134Z,18.75
2018-05-09T19:00:50.319Z,18.68
2018-05-09T19:02:50.457Z,18.63
2018-05-09T19:04:50.177Z,18.53
2018-05-09T19:06:50.643Z,18.50
2018-05-09T19:08:50.713Z,18.44
2018-05-09T19:10:49.995Z,18.39
2018-05-09T19:12:50.275Z,18.36
2018-05-09T19:14:50.395Z,18.32
2018-05-09T19:16:50.669Z,18.30
2018-05-09T19:18:50.862Z,18.24
2018-05-09T19:20:50.063Z,18.21
2018-05-09T19:22:50.195Z,18.12
2018-05-09T19:24:50.359Z,18.09
2018-05-09T19:26:50.641Z,18.02
2018-05-09T19:28:50.749Z,18.00
2018-05-09T19:30:49.891Z,18.00
2018-05-09T19:32:50.216Z,17.92
2018-05-09T19:34:50.661Z,17.89
2018-05-09T19:36:49.912Z,17.79
2018-05-09T19:38:50.097Z,17.73
2018-05-09T19:40:50.173Z,17.60
2018-05-09T19:42:50.297Z,17.56
2018-05-09T19:44:50.424Z,17.45
2018-05-09T19:46:50.723Z,17.36
2018-05-09T19:48:50.817Z,17.33
2018-05-09T19:50:50.000Z,17.31
2018-05-09T19:52:50.095Z,17.29
2018-05-09T19:54:50.220Z,17.26
2018-05-09T19:56:50.520Z,17.26
2018-05-09T19:58:50.636Z,17.24
2018-05-09T20:00:50.787Z,17.23
2018-05-09T20:02:50.144Z,17.28
2018-05-09T20:04:50.680Z,17.28
2018-05-09T20:06:49.988Z,17.26
2018-05-09T20:08:50.140Z,17.20
2018-05-09T20:10:50.310Z,17.17
2018-05-09T20:12:50.507Z,17.13
2018-05-09T20:14:50.596Z,17.11
2018-05-09T20:16:50.880Z,17.10
2018-05-09T20:18:50.023Z,17.03
2018-05-09T20:20:50.199Z,16.98
2018-05-09T20:22:50.503Z,16.88
2018-05-09T20:24:50.667Z,16.83
2018-05-09T20:26:49.949Z,16.74
2018-05-09T20:28:50.142Z,16.62
2018-05-09T20:30:50.384Z,16.46
2018-05-09T20:32:50.533Z,16.28
2018-05-09T20:34:50.866Z,16.19
2018-05-09T20:36:50.212Z,16.06
2018-05-09T20:38:50.333Z,16.00
2018-05-09T20:40:50.498Z,15.79
2018-05-09T20:42:50.843Z,15.73
2018-05-09T20:44:50.118Z,15.61
2018-05-09T20:46:50.547Z,15.56
2018-05-09T20:48:50.643Z,15.46
2018-05-09T20:50:50.813Z,15.41
2018-05-09T20:52:49.959Z,15.26
2018-05-09T20:54:50.150Z,15.21
2018-05-09T20:56:50.435Z,15.13
2018-05-09T20:58:50.805Z,15.19
2018-05-09T21:00:50.061Z,15.21
2018-05-09T21:02:50.431Z,15.18
2018-05-09T21:04:50.875Z,15.17
2018-05-09T21:06:50.298Z,15.08
2018-05-09T21:08:50.492Z,15.03
2018-05-09T21:10:50.623Z,14.90
2018-05-09T21:12:50.785Z,14.81
2018-05-09T21:14:49.883Z,14.77
2018-05-09T21:16:50.240Z,14.72
2018-05-09T21:18:50.379Z,14.72
2018-05-09T21:20:50.519Z,14.71
2018-05-09T21:22:50.652Z,14.71
2018-05-09T21:24:50.752Z,14.69
2018-05-09T21:26:50.017Z,14.69
2018-05-09T21:28:50.141Z,14.63
2018-05-09T21:30:50.331Z,14.62
2018-05-09T21:32:50.487Z,14.55
2018-05-09T21:34:50.885Z,14.48
2018-05-09T21:36:50.183Z,14.44
2018-05-09T21:38:50.300Z,14.47
2018-05-09T21:40:50.814Z,14.48
2018-05-09T21:42:50.174Z,14.41
2018-05-09T21:44:50.356Z,14.29
2018-05-09T21:46:50.581Z,14.20
2018-05-09T21:48:50.681Z,14.01
2018-05-09T21:50:50.893Z,14.01
2018-05-09T21:52:50.045Z,13.93
2018-05-09T21:54:50.170Z,13.92
2018-05-09T21:56:50.455Z,13.81
2018-05-09T21:58:50.596Z,13.77
2018-05-09T22:00:50.811Z,13.73
2018-05-09T22:02:50.301Z,13.73
2018-05-09T22:04:50.850Z,13.74
2018-05-09T22:06:50.200Z,13.72
2018-05-09T22:08:50.372Z,13.60
2018-05-09T22:10:50.971Z,13.45
2018-05-09T22:12:50.263Z,13.40
2018-05-09T22:14:50.344Z,13.32
2018-05-09T22:16:50.590Z,13.27
2018-05-09T22:18:51.047Z,13.25
2018-05-09T22:20:50.235Z,13.20
2018-05-09T22:22:50.447Z,13.20
2018-05-09T22:24:50.585Z,13.18
2018-05-09T22:26:49.966Z,13.16
2018-05-09T22:28:50.360Z,13.10
2018-05-09T22:30:50.525Z,13.06
2018-05-09T22:32:50.777Z,13.04
2018-05-09T22:34:50.196Z,12.91
2018-05-09T22:36:50.426Z,12.87
2018-05-09T22:38:50.658Z,12.79
2018-05-09T22:40:50.809Z,12.77
2018-05-09T22:42:49.916Z,12.75
2018-05-09T22:44:49.980Z,12.70
2018-05-09T22:46:50.179Z,12.60
2018-05-09T22:48:50.316Z,12.56
2018-05-09T22:50:50.441Z,12.53
2018-05-09T22:52:50.598Z,12.46
2018-05-09T22:54:51.014Z,12.43
2018-05-09T22:56:50.325Z,12.34
2018-05-09T22:58:50.433Z,12.35
2018-05-09T23:00:50.541Z,12.41
2018-05-09T23:02:50.700Z,12.54
2018-05-09T23:04:50.014Z,12.60
2018-05-09T23:06:50.265Z,12.56
2018-05-09T23:08:50.404Z,12.51
2018-05-09T23:10:50.529Z,12.42
2018-05-09T23:12:50.697Z,12.42
2018-05-09T23:14:50.915Z,12.31
2018-05-09T23:16:50.270Z,12.28
2018-05-09T23:18:50.403Z,12.27
2018-05-09T23:20:50.560Z,12.22
2018-05-09T23:22:50.725Z,12.19
2018-05-09T23:24:50.832Z,12.12
2018-05-09T23:26:50.110Z,12.05
2018-05-09T23:28:50.242Z,12.00
2018-05-09T23:30:50.400Z,11.94
2018-05-09T23:32:50.506Z,11.87
2018-05-09T23:34:50.758Z,11.85
2018-05-09T23:36:50.008Z,11.88
2018-05-09T23:38:50.163Z,11.88
2018-05-09T23:40:50.338Z,11.87
2018-05-09T23:42:50.475Z,11.86
2018-05-09T23:44:50.683Z,11.84
2018-05-09T23:46:49.901Z,11.83
2018-05-09T23:48:50.079Z,11.79
2018-05-09T23:50:50.257Z,11.77
2018-05-09T23:52:50.437Z,11.71
2018-05-09T23:54:50.548Z,11.72
2018-05-09T23:56:50.932Z,11.75
2018-05-09T23:58:50.083Z,11.75
